sensor_id;sensor_type;location;lat;lon;timestamp;P1;durP1;ratioP1;P2;durP2;ratioP2
75320;SDS011;63920;52.130;5.584;2023-03-02T00:00:24;46.75;;;28.40;;
75320;SDS011;63920;52.130;5.584;2023-03-02T00:02:50;44.33;;;27.20;;
75320;SDS011;63920;52.130;5.584;2023-03-02T00:05:16;45.20;;;27.38;;
75320;SDS011;63920;52.130;5.584;2023-03-02T00:07:41;48.92;;;28.75;;
75320;SDS011;63920;52.130;5.584;2023-03-02T00:10:07;48.75;;;28.65;;
75320;SDS011;63920;52.130;5.584;2023-03-02T00:12:34;48.00;;;28.75;;
75320;SDS011;63920;52.130;5.584;2023-03-02T00:15:00;48.20;;;28.30;;
75320;SDS011;63920;52.130;5.584;2023-03-02T00:17:25;50.65;;;31.05;;
75320;SDS011;63920;52.130;5.584;2023-03-02T00:19:54;51.15;;;29.98;;
75320;SDS011;63920;52.130;5.584;2023-03-02T00:22:36;51.92;;;30.75;;
75320;SDS011;63920;52.130;5.584;2023-03-02T00:25:02;53.53;;;30.42;;
75320;SDS011;63920;52.130;5.584;2023-03-02T00:27:29;51.38;;;28.55;;
75320;SDS011;63920;52.130;5.584;2023-03-02T00:29:55;53.08;;;29.80;;
75320;SDS011;63920;52.130;5.584;2023-03-02T00:32:21;52.20;;;30.77;;
75320;SDS011;63920;52.130;5.584;2023-03-02T00:34:48;50.85;;;30.23;;
75320;SDS011;63920;52.130;5.584;2023-03-02T00:37:14;52.03;;;30.88;;
75320;SDS011;63920;52.130;5.584;2023-03-02T00:39:40;45.72;;;28.08;;
75320;SDS011;63920;52.130;5.584;2023-03-02T00:42:05;50.25;;;30.73;;
75320;SDS011;63920;52.130;5.584;2023-03-02T00:44:31;56.08;;;30.65;;
75320;SDS011;63920;52.130;5.584;2023-03-02T00:46:56;58.58;;;30.42;;
75320;SDS011;63920;52.130;5.584;2023-03-02T00:49:22;54.30;;;29.88;;
75320;SDS011;63920;52.130;5.584;2023-03-02T00:51:47;50.70;;;28.52;;
75320;SDS011;63920;52.130;5.584;2023-03-02T00:54:13;52.50;;;30.25;;
75320;SDS011;63920;52.130;5.584;2023-03-02T00:56:39;54.53;;;29.63;;
75320;SDS011;63920;52.130;5.584;2023-03-02T00:59:05;53.38;;;30.58;;
75320;SDS011;63920;52.130;5.584;2023-03-02T01:01:50;52.30;;;29.50;;
75320;SDS011;63920;52.130;5.584;2023-03-02T01:07:03;54.05;;;30.10;;
75320;SDS011;63920;52.130;5.584;2023-03-02T01:09:31;56.75;;;30.48;;
75320;SDS011;63920;52.130;5.584;2023-03-02T01:11:56;56.25;;;31.70;;
75320;SDS011;63920;52.130;5.584;2023-03-02T01:14:22;51.50;;;29.50;;
75320;SDS011;63920;52.130;5.584;2023-03-02T01:16:48;55.20;;;30.15;;
75320;SDS011;63920;52.130;5.584;2023-03-02T01:19:15;57.63;;;31.13;;
75320;SDS011;63920;52.130;5.584;2023-03-02T01:21:40;58.25;;;31.65;;
75320;SDS011;63920;52.130;5.584;2023-03-02T01:24:07;59.90;;;31.00;;
75320;SDS011;63920;52.130;5.584;2023-03-02T01:26:34;56.58;;;31.75;;
75320;SDS011;63920;52.130;5.584;2023-03-02T01:29:00;57.92;;;32.15;;
75320;SDS011;63920;52.130;5.584;2023-03-02T01:31:26;58.80;;;31.15;;
75320;SDS011;63920;52.130;5.584;2023-03-02T01:33:52;56.78;;;30.30;;
75320;SDS011;63920;52.130;5.584;2023-03-02T01:36:18;59.92;;;30.70;;
75320;SDS011;63920;52.130;5.584;2023-03-02T01:38:45;57.92;;;31.02;;
75320;SDS011;63920;52.130;5.584;2023-03-02T01:41:10;58.78;;;30.90;;
75320;SDS011;63920;52.130;5.584;2023-03-02T01:43:36;58.60;;;32.33;;
75320;SDS011;63920;52.130;5.584;2023-03-02T01:51:10;60.80;;;31.77;;
75320;SDS011;63920;52.130;5.584;2023-03-02T01:53:40;56.25;;;29.88;;
75320;SDS011;63920;52.130;5.584;2023-03-02T01:56:10;55.22;;;30.35;;
75320;SDS011;63920;52.130;5.584;2023-03-02T01:58:41;55.72;;;31.10;;
75320;SDS011;63920;52.130;5.584;2023-03-02T02:01:08;55.83;;;30.35;;
75320;SDS011;63920;52.130;5.584;2023-03-02T02:03:43;56.53;;;30.90;;
75320;SDS011;63920;52.130;5.584;2023-03-02T02:06:18;56.60;;;29.27;;
75320;SDS011;63920;52.130;5.584;2023-03-02T02:08:51;52.78;;;29.40;;
75320;SDS011;63920;52.130;5.584;2023-03-02T02:11:20;55.63;;;30.92;;
75320;SDS011;63920;52.130;5.584;2023-03-02T02:13:45;55.92;;;30.13;;
75320;SDS011;63920;52.130;5.584;2023-03-02T02:16:11;52.83;;;28.45;;
75320;SDS011;63920;52.130;5.584;2023-03-02T02:18:38;57.03;;;31.80;;
75320;SDS011;63920;52.130;5.584;2023-03-02T02:21:05;57.38;;;31.08;;
75320;SDS011;63920;52.130;5.584;2023-03-02T02:23:33;50.80;;;28.67;;
75320;SDS011;63920;52.130;5.584;2023-03-02T02:26:05;56.30;;;28.48;;
75320;SDS011;63920;52.130;5.584;2023-03-02T02:29:36;56.83;;;29.50;;
75320;SDS011;63920;52.130;5.584;2023-03-02T02:31:37;51.83;;;29.08;;
75320;SDS011;63920;52.130;5.584;2023-03-02T02:34:19;54.95;;;29.10;;
75320;SDS011;63920;52.130;5.584;2023-03-02T02:36:54;51.97;;;28.48;;
75320;SDS011;63920;52.130;5.584;2023-03-02T02:39:43;51.80;;;28.40;;
75320;SDS011;63920;52.130;5.584;2023-03-02T02:42:17;50.78;;;27.33;;
75320;SDS011;63920;52.130;5.584;2023-03-02T02:44:45;57.35;;;29.55;;
75320;SDS011;63920;52.130;5.584;2023-03-02T02:47:16;48.47;;;27.70;;
75320;SDS011;63920;52.130;5.584;2023-03-02T02:49:44;52.83;;;28.83;;
75320;SDS011;63920;52.130;5.584;2023-03-02T02:52:13;53.40;;;28.45;;
75320;SDS011;63920;52.130;5.584;2023-03-02T02:54:42;50.35;;;28.55;;
75320;SDS011;63920;52.130;5.584;2023-03-02T02:57:10;48.17;;;28.35;;
75320;SDS011;63920;52.130;5.584;2023-03-02T02:59:40;54.88;;;29.23;;
75320;SDS011;63920;52.130;5.584;2023-03-02T03:02:19;52.63;;;27.85;;
75320;SDS011;63920;52.130;5.584;2023-03-02T03:04:47;52.85;;;27.10;;
75320;SDS011;63920;52.130;5.584;2023-03-02T03:07:19;52.78;;;28.70;;
75320;SDS011;63920;52.130;5.584;2023-03-02T03:12:24;53.47;;;28.48;;
75320;SDS011;63920;52.130;5.584;2023-03-02T03:14:52;48.10;;;27.35;;
75320;SDS011;63920;52.130;5.584;2023-03-02T03:17:19;51.83;;;28.27;;
75320;SDS011;63920;52.130;5.584;2023-03-02T03:19:45;54.58;;;29.90;;
75320;SDS011;63920;52.130;5.584;2023-03-02T03:22:12;53.53;;;29.25;;
75320;SDS011;63920;52.130;5.584;2023-03-02T03:24:39;52.60;;;27.70;;
75320;SDS011;63920;52.130;5.584;2023-03-02T03:27:07;53.38;;;28.75;;
75320;SDS011;63920;52.130;5.584;2023-03-02T03:29:35;48.40;;;26.90;;
75320;SDS011;63920;52.130;5.584;2023-03-02T03:32:02;50.03;;;27.77;;
75320;SDS011;63920;52.130;5.584;2023-03-02T03:34:28;45.08;;;26.65;;
75320;SDS011;63920;52.130;5.584;2023-03-02T03:36:55;53.35;;;29.10;;
75320;SDS011;63920;52.130;5.584;2023-03-02T03:39:26;50.78;;;27.55;;
75320;SDS011;63920;52.130;5.584;2023-03-02T03:41:52;48.78;;;26.05;;
75320;SDS011;63920;52.130;5.584;2023-03-02T03:44:18;43.65;;;25.08;;
75320;SDS011;63920;52.130;5.584;2023-03-02T03:46:44;49.47;;;26.98;;
75320;SDS011;63920;52.130;5.584;2023-03-02T03:49:09;50.92;;;27.75;;
75320;SDS011;63920;52.130;5.584;2023-03-02T03:51:35;45.53;;;25.02;;
75320;SDS011;63920;52.130;5.584;2023-03-02T03:54:04;45.97;;;25.83;;
75320;SDS011;63920;52.130;5.584;2023-03-02T03:56:32;45.55;;;26.05;;
75320;SDS011;63920;52.130;5.584;2023-03-02T03:59:03;51.58;;;25.27;;
75320;SDS011;63920;52.130;5.584;2023-03-02T04:01:38;47.88;;;25.58;;
75320;SDS011;63920;52.130;5.584;2023-03-02T04:04:15;46.42;;;25.23;;
75320;SDS011;63920;52.130;5.584;2023-03-02T04:06:42;46.13;;;25.73;;
75320;SDS011;63920;52.130;5.584;2023-03-02T04:09:09;46.72;;;25.42;;
75320;SDS011;63920;52.130;5.584;2023-03-02T04:11:38;49.03;;;25.60;;
75320;SDS011;63920;52.130;5.584;2023-03-02T04:14:06;45.70;;;25.23;;
75320;SDS011;63920;52.130;5.584;2023-03-02T04:16:32;44.63;;;25.70;;
75320;SDS011;63920;52.130;5.584;2023-03-02T04:18:59;45.83;;;25.00;;
75320;SDS011;63920;52.130;5.584;2023-03-02T04:21:25;50.97;;;26.02;;
75320;SDS011;63920;52.130;5.584;2023-03-02T04:23:51;42.08;;;23.90;;
75320;SDS011;63920;52.130;5.584;2023-03-02T04:26:17;47.70;;;25.35;;
75320;SDS011;63920;52.130;5.584;2023-03-02T04:28:43;50.35;;;25.67;;
75320;SDS011;63920;52.130;5.584;2023-03-02T04:31:08;48.95;;;24.85;;
75320;SDS011;63920;52.130;5.584;2023-03-02T04:33:34;45.33;;;24.60;;
75320;SDS011;63920;52.130;5.584;2023-03-02T04:36:00;46.65;;;26.38;;
75320;SDS011;63920;52.130;5.584;2023-03-02T04:38:25;45.70;;;25.58;;
75320;SDS011;63920;52.130;5.584;2023-03-02T04:40:54;44.58;;;24.98;;
75320;SDS011;63920;52.130;5.584;2023-03-02T04:43:23;46.42;;;25.35;;
75320;SDS011;63920;52.130;5.584;2023-03-02T04:45:50;46.78;;;24.00;;
75320;SDS011;63920;52.130;5.584;2023-03-02T04:48:17;46.40;;;25.75;;
75320;SDS011;63920;52.130;5.584;2023-03-02T04:50:42;41.63;;;23.02;;
75320;SDS011;63920;52.130;5.584;2023-03-02T04:53:08;46.95;;;24.38;;
75320;SDS011;63920;52.130;5.584;2023-03-02T04:55:35;45.58;;;22.58;;
75320;SDS011;63920;52.130;5.584;2023-03-02T04:58:01;43.22;;;23.60;;
75320;SDS011;63920;52.130;5.584;2023-03-02T05:00:27;44.90;;;22.73;;
75320;SDS011;63920;52.130;5.584;2023-03-02T05:02:53;44.25;;;23.92;;
75320;SDS011;63920;52.130;5.584;2023-03-02T05:05:21;47.85;;;25.35;;
75320;SDS011;63920;52.130;5.584;2023-03-02T05:07:48;47.53;;;24.00;;
75320;SDS011;63920;52.130;5.584;2023-03-02T05:10:14;41.67;;;23.00;;
75320;SDS011;63920;52.130;5.584;2023-03-02T05:12:41;50.08;;;26.25;;
75320;SDS011;63920;52.130;5.584;2023-03-02T05:15:25;47.10;;;25.05;;
75320;SDS011;63920;52.130;5.584;2023-03-02T05:17:53;52.97;;;26.40;;
75320;SDS011;63920;52.130;5.584;2023-03-02T05:20:19;47.42;;;24.30;;
75320;SDS011;63920;52.130;5.584;2023-03-02T05:22:45;48.35;;;25.58;;
75320;SDS011;63920;52.130;5.584;2023-03-02T05:25:11;45.28;;;24.60;;
75320;SDS011;63920;52.130;5.584;2023-03-02T05:27:37;48.33;;;24.83;;
75320;SDS011;63920;52.130;5.584;2023-03-02T05:30:03;47.03;;;24.80;;
75320;SDS011;63920;52.130;5.584;2023-03-02T05:32:30;47.30;;;25.73;;
75320;SDS011;63920;52.130;5.584;2023-03-02T05:34:55;48.42;;;25.75;;
75320;SDS011;63920;52.130;5.584;2023-03-02T05:37:21;53.53;;;24.73;;
75320;SDS011;63920;52.130;5.584;2023-03-02T05:39:46;48.95;;;24.90;;
75320;SDS011;63920;52.130;5.584;2023-03-02T05:42:12;50.78;;;24.42;;
75320;SDS011;63920;52.130;5.584;2023-03-02T05:44:38;48.45;;;25.90;;
75320;SDS011;63920;52.130;5.584;2023-03-02T05:47:03;53.85;;;26.33;;
75320;SDS011;63920;52.130;5.584;2023-03-02T05:49:29;47.35;;;24.50;;
75320;SDS011;63920;52.130;5.584;2023-03-02T05:51:55;47.30;;;25.20;;
75320;SDS011;63920;52.130;5.584;2023-03-02T05:54:20;50.95;;;26.42;;
75320;SDS011;63920;52.130;5.584;2023-03-02T05:56:46;52.35;;;26.08;;
75320;SDS011;63920;52.130;5.584;2023-03-02T05:59:12;47.00;;;25.55;;
75320;SDS011;63920;52.130;5.584;2023-03-02T06:01:37;49.17;;;25.13;;
75320;SDS011;63920;52.130;5.584;2023-03-02T06:04:03;48.38;;;24.48;;
75320;SDS011;63920;52.130;5.584;2023-03-02T06:06:29;51.05;;;26.08;;
75320;SDS011;63920;52.130;5.584;2023-03-02T06:08:55;48.25;;;24.70;;
75320;SDS011;63920;52.130;5.584;2023-03-02T06:11:20;51.17;;;25.65;;
75320;SDS011;63920;52.130;5.584;2023-03-02T06:13:46;44.42;;;23.73;;
75320;SDS011;63920;52.130;5.584;2023-03-02T06:16:11;46.70;;;25.35;;
75320;SDS011;63920;52.130;5.584;2023-03-02T06:18:37;48.25;;;25.40;;
75320;SDS011;63920;52.130;5.584;2023-03-02T06:21:03;50.58;;;26.40;;
75320;SDS011;63920;52.130;5.584;2023-03-02T06:23:29;51.72;;;26.52;;
75320;SDS011;63920;52.130;5.584;2023-03-02T06:25:55;52.30;;;25.67;;
75320;SDS011;63920;52.130;5.584;2023-03-02T06:28:22;52.60;;;27.50;;
75320;SDS011;63920;52.130;5.584;2023-03-02T06:30:49;46.03;;;24.52;;
75320;SDS011;63920;52.130;5.584;2023-03-02T06:33:16;47.75;;;24.40;;
75320;SDS011;63920;52.130;5.584;2023-03-02T06:35:44;51.28;;;26.50;;
75320;SDS011;63920;52.130;5.584;2023-03-02T06:38:09;51.85;;;25.83;;
75320;SDS011;63920;52.130;5.584;2023-03-02T06:40:35;52.33;;;26.10;;
75320;SDS011;63920;52.130;5.584;2023-03-02T06:43:01;51.70;;;26.63;;
75320;SDS011;63920;52.130;5.584;2023-03-02T06:45:26;51.15;;;26.10;;
75320;SDS011;63920;52.130;5.584;2023-03-02T06:47:53;49.70;;;25.23;;
75320;SDS011;63920;52.130;5.584;2023-03-02T06:50:19;53.10;;;25.63;;
75320;SDS011;63920;52.130;5.584;2023-03-02T06:52:44;54.72;;;27.05;;
75320;SDS011;63920;52.130;5.584;2023-03-02T06:55:10;50.90;;;26.10;;
75320;SDS011;63920;52.130;5.584;2023-03-02T06:57:36;54.33;;;25.77;;
75320;SDS011;63920;52.130;5.584;2023-03-02T07:00:10;51.00;;;25.30;;
75320;SDS011;63920;52.130;5.584;2023-03-02T07:02:44;53.13;;;24.67;;
75320;SDS011;63920;52.130;5.584;2023-03-02T07:05:10;52.08;;;25.42;;
75320;SDS011;63920;52.130;5.584;2023-03-02T07:07:36;50.35;;;25.48;;
75320;SDS011;63920;52.130;5.584;2023-03-02T07:10:02;51.28;;;25.23;;
75320;SDS011;63920;52.130;5.584;2023-03-02T07:12:28;51.55;;;25.45;;
75320;SDS011;63920;52.130;5.584;2023-03-02T07:14:53;54.38;;;26.08;;
75320;SDS011;63920;52.130;5.584;2023-03-02T07:17:19;51.70;;;26.65;;
75320;SDS011;63920;52.130;5.584;2023-03-02T07:19:44;48.35;;;26.23;;
75320;SDS011;63920;52.130;5.584;2023-03-02T07:22:10;51.20;;;26.33;;
75320;SDS011;63920;52.130;5.584;2023-03-02T07:24:35;53.38;;;26.88;;
75320;SDS011;63920;52.130;5.584;2023-03-02T07:27:01;55.70;;;26.60;;
75320;SDS011;63920;52.130;5.584;2023-03-02T07:29:27;51.65;;;25.98;;
75320;SDS011;63920;52.130;5.584;2023-03-02T07:31:52;48.20;;;24.27;;
75320;SDS011;63920;52.130;5.584;2023-03-02T07:34:21;50.90;;;25.10;;
75320;SDS011;63920;52.130;5.584;2023-03-02T07:36:48;47.47;;;24.38;;
75320;SDS011;63920;52.130;5.584;2023-03-02T07:39:14;48.88;;;24.42;;
75320;SDS011;63920;52.130;5.584;2023-03-02T07:41:43;47.90;;;25.63;;
75320;SDS011;63920;52.130;5.584;2023-03-02T07:44:09;50.38;;;23.88;;
75320;SDS011;63920;52.130;5.584;2023-03-02T07:46:34;49.25;;;25.17;;
75320;SDS011;63920;52.130;5.584;2023-03-02T07:49:00;51.22;;;24.83;;
75320;SDS011;63920;52.130;5.584;2023-03-02T07:51:26;50.00;;;23.95;;
75320;SDS011;63920;52.130;5.584;2023-03-02T07:53:52;48.60;;;23.73;;
75320;SDS011;63920;52.130;5.584;2023-03-02T07:56:17;44.60;;;22.65;;
75320;SDS011;63920;52.130;5.584;2023-03-02T07:58:44;48.88;;;23.55;;
75320;SDS011;63920;52.130;5.584;2023-03-02T08:01:10;48.72;;;23.27;;
75320;SDS011;63920;52.130;5.584;2023-03-02T08:03:36;44.65;;;22.67;;
75320;SDS011;63920;52.130;5.584;2023-03-02T08:06:06;43.08;;;22.80;;
75320;SDS011;63920;52.130;5.584;2023-03-02T08:08:34;48.67;;;23.20;;
75320;SDS011;63920;52.130;5.584;2023-03-02T08:11:08;44.08;;;22.13;;
75320;SDS011;63920;52.130;5.584;2023-03-02T08:13:36;47.00;;;23.08;;
75320;SDS011;63920;52.130;5.584;2023-03-02T08:16:03;46.60;;;23.10;;
75320;SDS011;63920;52.130;5.584;2023-03-02T08:18:30;48.88;;;23.30;;
75320;SDS011;63920;52.130;5.584;2023-03-02T08:20:56;46.38;;;22.17;;
75320;SDS011;63920;52.130;5.584;2023-03-02T08:23:23;45.63;;;21.77;;
75320;SDS011;63920;52.130;5.584;2023-03-02T08:25:49;43.03;;;21.52;;
75320;SDS011;63920;52.130;5.584;2023-03-02T08:28:16;41.97;;;21.45;;
75320;SDS011;63920;52.130;5.584;2023-03-02T08:30:42;41.28;;;21.00;;
75320;SDS011;63920;52.130;5.584;2023-03-02T08:33:08;47.13;;;22.60;;
75320;SDS011;63920;52.130;5.584;2023-03-02T08:35:33;41.22;;;20.17;;
75320;SDS011;63920;52.130;5.584;2023-03-02T08:37:59;40.08;;;21.00;;
75320;SDS011;63920;52.130;5.584;2023-03-02T08:40:25;41.05;;;20.35;;
75320;SDS011;63920;52.130;5.584;2023-03-02T08:42:50;39.92;;;22.17;;
75320;SDS011;63920;52.130;5.584;2023-03-02T08:45:21;40.17;;;21.80;;
75320;SDS011;63920;52.130;5.584;2023-03-02T08:47:47;41.45;;;21.05;;
75320;SDS011;63920;52.130;5.584;2023-03-02T08:50:13;38.97;;;19.20;;
75320;SDS011;63920;52.130;5.584;2023-03-02T08:52:39;38.08;;;19.52;;
75320;SDS011;63920;52.130;5.584;2023-03-02T08:55:05;44.08;;;20.55;;
75320;SDS011;63920;52.130;5.584;2023-03-02T08:57:31;38.60;;;19.75;;
75320;SDS011;63920;52.130;5.584;2023-03-02T08:59:58;37.90;;;19.52;;
75320;SDS011;63920;52.130;5.584;2023-03-02T09:02:24;39.08;;;20.08;;
75320;SDS011;63920;52.130;5.584;2023-03-02T09:04:50;37.72;;;20.33;;
75320;SDS011;63920;52.130;5.584;2023-03-02T09:07:15;35.25;;;19.50;;
75320;SDS011;63920;52.130;5.584;2023-03-02T09:09:41;41.42;;;20.70;;
75320;SDS011;63920;52.130;5.584;2023-03-02T09:12:07;44.40;;;21.55;;
75320;SDS011;63920;52.130;5.584;2023-03-02T09:14:33;39.75;;;20.20;;
75320;SDS011;63920;52.130;5.584;2023-03-02T09:16:58;41.88;;;20.02;;
75320;SDS011;63920;52.130;5.584;2023-03-02T09:19:24;38.95;;;16.83;;
75320;SDS011;63920;52.130;5.584;2023-03-02T09:21:50;38.97;;;20.52;;
75320;SDS011;63920;52.130;5.584;2023-03-02T09:24:16;35.38;;;18.85;;
75320;SDS011;63920;52.130;5.584;2023-03-02T09:26:42;39.47;;;19.50;;
75320;SDS011;63920;52.130;5.584;2023-03-02T09:29:08;36.13;;;19.65;;
75320;SDS011;63920;52.130;5.584;2023-03-02T09:31:34;36.90;;;17.92;;
75320;SDS011;63920;52.130;5.584;2023-03-02T09:34:00;35.00;;;18.83;;
75320;SDS011;63920;52.130;5.584;2023-03-02T09:36:26;35.33;;;18.88;;
75320;SDS011;63920;52.130;5.584;2023-03-02T09:38:52;35.97;;;18.85;;
75320;SDS011;63920;52.130;5.584;2023-03-02T09:43:54;33.95;;;17.38;;
75320;SDS011;63920;52.130;5.584;2023-03-02T09:46:45;33.30;;;17.05;;
75320;SDS011;63920;52.130;5.584;2023-03-02T09:49:26;35.03;;;17.73;;
75320;SDS011;63920;52.130;5.584;2023-03-02T09:52:30;34.95;;;18.27;;
75320;SDS011;63920;52.130;5.584;2023-03-02T09:55:10;32.88;;;17.67;;
75320;SDS011;63920;52.130;5.584;2023-03-02T09:57:42;32.53;;;16.95;;
75320;SDS011;63920;52.130;5.584;2023-03-02T10:00:18;31.55;;;17.17;;
75320;SDS011;63920;52.130;5.584;2023-03-02T10:02:51;34.25;;;17.15;;
75320;SDS011;63920;52.130;5.584;2023-03-02T10:05:23;34.30;;;16.38;;
75320;SDS011;63920;52.130;5.584;2023-03-02T10:07:52;28.35;;;16.05;;
75320;SDS011;63920;52.130;5.584;2023-03-02T10:10:25;29.52;;;16.63;;
75320;SDS011;63920;52.130;5.584;2023-03-02T10:13:32;30.27;;;16.15;;
75320;SDS011;63920;52.130;5.584;2023-03-02T10:18:43;30.58;;;15.82;;
75320;SDS011;63920;52.130;5.584;2023-03-02T10:23:57;26.73;;;15.48;;
75320;SDS011;63920;52.130;5.584;2023-03-02T10:26:37;27.63;;;14.55;;
75320;SDS011;63920;52.130;5.584;2023-03-02T10:32:06;24.17;;;14.13;;
75320;SDS011;63920;52.130;5.584;2023-03-02T10:34:37;27.02;;;14.60;;
75320;SDS011;63920;52.130;5.584;2023-03-02T10:37:08;27.15;;;15.75;;
75320;SDS011;63920;52.130;5.584;2023-03-02T10:39:37;25.00;;;14.45;;
75320;SDS011;63920;52.130;5.584;2023-03-02T10:42:03;26.13;;;15.13;;
75320;SDS011;63920;52.130;5.584;2023-03-02T10:44:35;24.42;;;13.63;;
75320;SDS011;63920;52.130;5.584;2023-03-02T10:47:06;28.38;;;15.25;;
75320;SDS011;63920;52.130;5.584;2023-03-02T10:49:36;28.92;;;15.65;;
75320;SDS011;63920;52.130;5.584;2023-03-02T10:52:16;23.40;;;13.82;;
75320;SDS011;63920;52.130;5.584;2023-03-02T10:54:44;24.83;;;14.00;;
75320;SDS011;63920;52.130;5.584;2023-03-02T10:59:48;24.63;;;13.98;;
75320;SDS011;63920;52.130;5.584;2023-03-02T11:04:48;26.88;;;14.63;;
75320;SDS011;63920;52.130;5.584;2023-03-02T11:07:19;22.10;;;13.80;;
75320;SDS011;63920;52.130;5.584;2023-03-02T11:10:00;24.23;;;14.80;;
75320;SDS011;63920;52.130;5.584;2023-03-02T11:12:28;24.05;;;13.63;;
75320;SDS011;63920;52.130;5.584;2023-03-02T11:15:13;22.23;;;13.25;;
75320;SDS011;63920;52.130;5.584;2023-03-02T11:17:40;21.75;;;12.52;;
75320;SDS011;63920;52.130;5.584;2023-03-02T11:20:14;22.48;;;12.38;;
75320;SDS011;63920;52.130;5.584;2023-03-02T11:22:51;19.70;;;12.27;;
75320;SDS011;63920;52.130;5.584;2023-03-02T11:25:31;21.85;;;12.95;;
75320;SDS011;63920;52.130;5.584;2023-03-02T11:30:56;20.15;;;12.25;;
75320;SDS011;63920;52.130;5.584;2023-03-02T11:33:27;18.85;;;11.88;;
75320;SDS011;63920;52.130;5.584;2023-03-02T11:36:01;17.00;;;11.05;;
75320;SDS011;63920;52.130;5.584;2023-03-02T11:38:48;16.30;;;10.55;;
75320;SDS011;63920;52.130;5.584;2023-03-02T11:43:54;18.45;;;11.75;;
75320;SDS011;63920;52.130;5.584;2023-03-02T11:46:23;15.25;;;10.90;;
75320;SDS011;63920;52.130;5.584;2023-03-02T11:48:54;16.85;;;11.10;;
75320;SDS011;63920;52.130;5.584;2023-03-02T11:51:27;18.58;;;11.20;;
75320;SDS011;63920;52.130;5.584;2023-03-02T11:56:30;14.77;;;10.15;;
75320;SDS011;63920;52.130;5.584;2023-03-02T11:59:03;15.65;;;9.48;;
75320;SDS011;63920;52.130;5.584;2023-03-02T12:01:35;14.68;;;10.18;;
75320;SDS011;63920;52.130;5.584;2023-03-02T12:04:07;14.98;;;10.27;;
75320;SDS011;63920;52.130;5.584;2023-03-02T12:06:47;17.48;;;10.27;;
75320;SDS011;63920;52.130;5.584;2023-03-02T12:11:53;15.75;;;10.07;;
75320;SDS011;63920;52.130;5.584;2023-03-02T12:14:26;32.13;;;11.30;;
75320;SDS011;63920;52.130;5.584;2023-03-02T12:17:42;14.18;;;9.75;;
75320;SDS011;63920;52.130;5.584;2023-03-02T12:19:48;12.98;;;9.30;;
75320;SDS011;63920;52.130;5.584;2023-03-02T12:22:30;13.13;;;9.82;;
75320;SDS011;63920;52.130;5.584;2023-03-02T12:25:01;13.32;;;9.27;;
75320;SDS011;63920;52.130;5.584;2023-03-02T12:27:49;16.60;;;10.40;;
75320;SDS011;63920;52.130;5.584;2023-03-02T12:30:20;15.10;;;10.35;;
75320;SDS011;63920;52.130;5.584;2023-03-02T12:35:34;13.75;;;9.60;;
75320;SDS011;63920;52.130;5.584;2023-03-02T12:38:15;14.45;;;9.63;;
75320;SDS011;63920;52.130;5.584;2023-03-02T12:43:59;13.07;;;9.68;;
75320;SDS011;63920;52.130;5.584;2023-03-02T12:46:50;14.57;;;9.25;;
75320;SDS011;63920;52.130;5.584;2023-03-02T12:49:30;14.73;;;9.57;;
75320;SDS011;63920;52.130;5.584;2023-03-02T12:55:06;12.85;;;9.30;;
75320;SDS011;63920;52.130;5.584;2023-03-02T12:57:52;12.43;;;8.57;;
75320;SDS011;63920;52.130;5.584;2023-03-02T13:00:21;13.35;;;9.43;;
75320;SDS011;63920;52.130;5.584;2023-03-02T13:02:50;13.07;;;8.85;;
75320;SDS011;63920;52.130;5.584;2023-03-02T13:05:17;14.20;;;8.70;;
75320;SDS011;63920;52.130;5.584;2023-03-02T13:08:04;13.80;;;9.50;;
75320;SDS011;63920;52.130;5.584;2023-03-02T13:10:36;14.93;;;9.80;;
75320;SDS011;63920;52.130;5.584;2023-03-02T13:13:20;13.18;;;8.65;;
75320;SDS011;63920;52.130;5.584;2023-03-02T13:15:51;15.02;;;9.40;;
75320;SDS011;63920;52.130;5.584;2023-03-02T13:18:28;15.73;;;9.57;;
75320;SDS011;63920;52.130;5.584;2023-03-02T13:20:56;12.82;;;8.98;;
75320;SDS011;63920;52.130;5.584;2023-03-02T13:23:23;11.88;;;8.98;;
75320;SDS011;63920;52.130;5.584;2023-03-02T13:28:24;14.80;;;9.48;;
75320;SDS011;63920;52.130;5.584;2023-03-02T13:31:00;12.15;;;8.38;;
75320;SDS011;63920;52.130;5.584;2023-03-02T13:33:30;10.40;;;8.07;;
75320;SDS011;63920;52.130;5.584;2023-03-02T13:35:57;12.63;;;8.63;;
75320;SDS011;63920;52.130;5.584;2023-03-02T13:38:24;11.57;;;8.15;;
75320;SDS011;63920;52.130;5.584;2023-03-02T13:40:54;10.23;;;8.27;;
75320;SDS011;63920;52.130;5.584;2023-03-02T13:51:24;12.70;;;8.48;;
75320;SDS011;63920;52.130;5.584;2023-03-02T13:53:58;12.40;;;8.95;;
75320;SDS011;63920;52.130;5.584;2023-03-02T13:56:27;10.57;;;8.18;;
75320;SDS011;63920;52.130;5.584;2023-03-02T13:58:55;11.63;;;8.20;;
75320;SDS011;63920;52.130;5.584;2023-03-02T14:01:21;17.15;;;9.05;;
75320;SDS011;63920;52.130;5.584;2023-03-02T14:03:47;13.50;;;9.00;;
75320;SDS011;63920;52.130;5.584;2023-03-02T14:06:12;12.23;;;9.05;;
75320;SDS011;63920;52.130;5.584;2023-03-02T14:08:38;11.93;;;8.27;;
75320;SDS011;63920;52.130;5.584;2023-03-02T14:11:04;12.18;;;8.98;;
75320;SDS011;63920;52.130;5.584;2023-03-02T14:13:38;10.73;;;8.07;;
75320;SDS011;63920;52.130;5.584;2023-03-02T14:16:09;10.68;;;8.30;;
75320;SDS011;63920;52.130;5.584;2023-03-02T14:18:54;13.27;;;8.43;;
75320;SDS011;63920;52.130;5.584;2023-03-02T14:21:23;11.40;;;8.05;;
75320;SDS011;63920;52.130;5.584;2023-03-02T14:23:50;9.77;;;7.15;;
75320;SDS011;63920;52.130;5.584;2023-03-02T14:26:30;11.80;;;7.50;;
75320;SDS011;63920;52.130;5.584;2023-03-02T14:29:12;9.55;;;7.45;;
75320;SDS011;63920;52.130;5.584;2023-03-02T14:31:45;10.57;;;7.65;;
75320;SDS011;63920;52.130;5.584;2023-03-02T14:34:12;10.68;;;7.15;;
75320;SDS011;63920;52.130;5.584;2023-03-02T14:36:38;11.30;;;7.30;;
75320;SDS011;63920;52.130;5.584;2023-03-02T14:39:14;9.65;;;7.20;;
75320;SDS011;63920;52.130;5.584;2023-03-02T14:41:42;11.60;;;8.45;;
75320;SDS011;63920;52.130;5.584;2023-03-02T14:44:09;10.70;;;8.35;;
75320;SDS011;63920;52.130;5.584;2023-03-02T14:46:35;11.88;;;8.38;;
75320;SDS011;63920;52.130;5.584;2023-03-02T14:49:00;10.30;;;7.10;;
75320;SDS011;63920;52.130;5.584;2023-03-02T14:51:27;13.52;;;7.43;;
75320;SDS011;63920;52.130;5.584;2023-03-02T14:53:56;12.02;;;7.07;;
75320;SDS011;63920;52.130;5.584;2023-03-02T14:56:24;10.77;;;7.80;;
75320;SDS011;63920;52.130;5.584;2023-03-02T14:58:50;12.05;;;8.20;;
75320;SDS011;63920;52.130;5.584;2023-03-02T15:01:20;9.95;;;7.90;;
75320;SDS011;63920;52.130;5.584;2023-03-02T15:03:48;11.35;;;8.38;;
75320;SDS011;63920;52.130;5.584;2023-03-02T15:09:02;12.75;;;9.00;;
75320;SDS011;63920;52.130;5.584;2023-03-02T15:11:28;12.85;;;8.70;;
75320;SDS011;63920;52.130;5.584;2023-03-02T15:13:54;9.77;;;7.80;;
75320;SDS011;63920;52.130;5.584;2023-03-02T15:16:20;11.52;;;8.18;;
75320;SDS011;63920;52.130;5.584;2023-03-02T15:18:52;12.30;;;8.77;;
75320;SDS011;63920;52.130;5.584;2023-03-02T15:21:22;11.55;;;8.63;;
75320;SDS011;63920;52.130;5.584;2023-03-02T15:23:48;10.48;;;7.55;;
75320;SDS011;63920;52.130;5.584;2023-03-02T15:26:16;10.88;;;7.93;;
75320;SDS011;63920;52.130;5.584;2023-03-02T15:28:41;10.55;;;8.10;;
75320;SDS011;63920;52.130;5.584;2023-03-02T15:31:10;12.23;;;8.10;;
75320;SDS011;63920;52.130;5.584;2023-03-02T15:33:38;10.40;;;8.02;;